TAF KFLG
KFLG 280520Z 2806/2906 09004KT P6SM SKC=
METAR KFLG
WC KFLG
WS KFLG
WV KFLG